Time;durP1;ratioP1;P1;durP2;ratioP2;P2;SDS_P1;SDS_P2;PMS_P1;PMS_P2;Temp;Humidity;BMP_temperature;BMP_pressure;BME280_temperature;BME280_humidity;BME280_pressure;Samples;Min_cycle;Max_cycle;Signal;HPM_P1;HPM_P2
2023/04/13 00:02:05;;;;;;;;;;;5.80;99.90;;;;;;5133216;27;19907;-44
2023/04/13 00:04:31;;;;;;;;;;;5.90;99.90;;;;;;5133610;27;19950;-45
2023/04/13 00:06:57;;;;;;;;;;;5.90;99.90;;;;;;5133814;27;19908;-45
2023/04/13 00:09:24;;;;;;;;;;;6.00;99.90;;;;;;5137013;27;19915;-42
2023/04/13 00:11:50;;;;;;;;;;;6.00;99.90;;;;;;5136028;27;20361;-43
2023/04/13 00:14:17;;;;;;;;;;;6.00;99.90;;;;;;5128475;27;19907;-43
2023/04/13 00:16:45;;;;;;;;;;;6.10;99.90;;;;;;5150816;27;19915;-43
2023/04/13 00:19:11;;;;;;;;;;;6.10;99.90;;;;;;5154419;27;19916;-42
2023/04/13 00:21:40;;;;;;;;;;;6.20;99.90;;;;;;5154577;27;19907;-43
2023/04/13 00:24:06;;;;;;;;;;;6.20;99.90;;;;;;5153808;27;20370;-43
2023/04/13 00:26:32;;;;;;;;;;;6.20;99.90;;;;;;5154448;27;20294;-44
2023/04/13 00:28:57;;;;;;;;;;;6.20;99.90;;;;;;5135310;27;19908;-43
2023/04/13 00:31:23;;;;;;;;;;;6.30;99.90;;;;;;5133021;28;19911;-45
2023/04/13 00:33:48;;;;;;;;;;;6.30;99.90;;;;;;5133639;28;19951;-43
2023/04/13 00:36:14;;;;;;;;;;;6.30;99.90;;;;;;5133679;28;19907;-44
2023/04/13 00:38:43;;;;;;;;;;;6.30;99.90;;;;;;5132707;28;19912;-43
2023/04/13 00:41:12;;;;;;;;;;;6.30;99.90;;;;;;5135160;27;20377;-44
2023/04/13 00:43:37;;;;;;;;;;;6.40;99.90;;;;;;5133467;27;19947;-43
2023/04/13 00:46:04;;;;;;;;;;;6.40;99.90;;;;;;5132549;28;19984;-43
2023/04/13 00:48:29;;;;;;;;;;;6.50;99.90;;;;;;5133719;28;19914;-42
2023/04/13 00:50:55;;;;;;;;;;;6.60;99.90;;;;;;5133108;28;19908;-43
2023/04/13 00:53:22;;;;;;;;;;;6.60;99.90;;;;;;5133428;28;19907;-43
2023/04/13 00:55:48;;;;;;;;;;;6.60;99.90;;;;;;5133390;28;19939;-43
2023/04/13 00:58:13;;;;;;;;;;;6.70;99.90;;;;;;5132695;28;20337;-45
2023/04/13 01:00:41;;;;;;;;;;;6.70;99.90;;;;;;5133447;28;20330;-43
2023/04/13 01:03:08;;;;;;;;;;;6.70;99.90;;;;;;5133146;28;19951;-44
2023/04/13 01:05:56;;;;;;;;;;;6.70;99.90;;;;;;5132675;27;19911;-43
2023/04/13 01:08:35;;;;;;;;;;;6.80;99.90;;;;;;5093372;27;19914;-43
2023/04/13 01:11:02;;;;;;;;;;;6.80;99.90;;;;;;5150512;27;19918;-43
2023/04/13 01:13:37;;;;;;;;;;;6.80;99.90;;;;;;5156190;27;19911;-42
2023/04/13 01:16:03;;;;;;;;;;;6.80;99.90;;;;;;5157899;27;19911;-43
2023/04/13 01:18:32;;;;;;;;;;;6.80;99.90;;;;;;5157784;27;20392;-43
2023/04/13 01:20:58;;;;;;;;;;;6.80;99.90;;;;;;5157040;27;19914;-43
2023/04/13 01:23:28;;;;;;;;;;;6.80;99.90;;;;;;5157841;27;19942;-42
2023/04/13 01:25:56;;;;;;;;;;;6.70;99.90;;;;;;5157666;27;20429;-43
2023/04/13 01:28:22;;;;;;;;;;;6.70;99.90;;;;;;5156950;27;19914;-44
2023/04/13 01:30:48;;;;;;;;;;;6.70;99.90;;;;;;5157642;27;19907;-44
2023/04/13 01:33:15;;;;;;;;;;;6.70;99.90;;;;;;5156844;27;20052;-43
2023/04/13 01:35:40;;;;;;;;;;;6.70;99.90;;;;;;5157601;27;19907;-43
2023/04/13 01:38:06;;;;;;;;;;;6.70;99.90;;;;;;5157541;27;19990;-43
2023/04/13 01:40:33;;;;;;;;;;;6.70;99.90;;;;;;5147561;27;20388;-43
2023/04/13 01:42:59;;;;;;;;;;;6.70;99.90;;;;;;5136495;27;20067;-42
2023/04/13 01:45:48;;;;;;;;;;;6.70;99.90;;;;;;5136599;27;19908;-44
2023/04/13 01:48:14;;;;;;;;;;;6.70;99.90;;;;;;5124413;27;20378;-43
2023/04/13 01:50:40;;;;;;;;;;;6.70;99.90;;;;;;5136615;27;19992;-42
2023/04/13 01:53:10;;;;;;;;;;;6.70;99.90;;;;;;5136476;27;20376;-42
2023/04/13 01:55:37;;;;;;;;;;;6.70;99.90;;;;;;5135765;27;19908;-42
2023/04/13 01:58:03;;;;;;;;;;;6.70;99.90;;;;;;5136284;27;20430;-44
2023/04/13 02:00:34;;;;;;;;;;;6.70;99.90;;;;;;5136371;27;20006;-43
2023/04/13 02:03:01;;;;;;;;;;;6.70;99.90;;;;;;5135244;27;19919;-42
2023/04/13 02:05:26;;;;;;;;;;;6.70;99.90;;;;;;5136393;27;19912;-43
2023/04/13 02:07:52;;;;;;;;;;;6.70;99.90;;;;;;5136116;27;20365;-42
2023/04/13 02:10:18;;;;;;;;;;;6.70;99.90;;;;;;5141818;27;19933;-43
2023/04/13 02:12:44;;;;;;;;;;;6.70;99.90;;;;;;5151178;27;19919;-42
2023/04/13 02:15:09;;;;;;;;;;;6.70;99.90;;;;;;5156678;27;19914;-43
2023/04/13 02:17:35;;;;;;;;;;;6.70;99.90;;;;;;5155238;27;19913;-42
2023/04/13 02:20:01;;;;;;;;;;;6.70;99.90;;;;;;5156056;27;20404;-44
2023/04/13 02:22:27;;;;;;;;;;;6.70;99.90;;;;;;5155994;27;19914;-42
2023/04/13 02:24:54;;;;;;;;;;;6.70;99.90;;;;;;5156532;27;19966;-44
2023/04/13 02:27:19;;;;;;;;;;;6.70;99.90;;;;;;5156552;27;20085;-45
2023/04/13 02:29:45;;;;;;;;;;;6.70;99.90;;;;;;5155735;27;19950;-43
2023/04/13 02:32:10;;;;;;;;;;;6.70;99.90;;;;;;5156454;27;19998;-42
2023/04/13 02:34:36;;;;;;;;;;;6.70;99.90;;;;;;5156449;27;19910;-43
2023/04/13 02:37:01;;;;;;;;;;;6.70;99.90;;;;;;5155657;27;19912;-44
2023/04/13 02:39:27;;;;;;;;;;;6.70;99.90;;;;;;5156652;27;19960;-42
2023/04/13 02:41:52;;;;;;;;;;;6.70;99.90;;;;;;5155604;27;19952;-45
2023/04/13 02:44:18;;;;;;;;;;;6.70;99.90;;;;;;5135049;27;19907;-44
2023/04/13 02:46:44;;;;;;;;;;;6.70;99.90;;;;;;5135546;27;20010;-45
2023/04/13 02:49:09;;;;;;;;;;;6.70;99.90;;;;;;5135366;27;20410;-44
2023/04/13 02:51:35;;;;;;;;;;;6.70;99.90;;;;;;5134559;27;19918;-43
2023/04/13 02:54:01;;;;;;;;;;;6.70;99.90;;;;;;5135308;27;19911;-44
2023/04/13 02:56:27;;;;;;;;;;;6.70;99.90;;;;;;5134941;27;19911;-43
2023/04/13 02:58:52;;;;;;;;;;;6.70;99.90;;;;;;5134286;27;20263;-42
2023/04/13 03:01:18;;;;;;;;;;;6.70;99.90;;;;;;5135263;27;19966;-42
2023/04/13 03:03:44;;;;;;;;;;;6.70;99.90;;;;;;5134827;27;20173;-42
2023/04/13 03:06:09;;;;;;;;;;;6.70;99.90;;;;;;5134232;27;20323;-41
2023/04/13 03:08:35;;;;;;;;;;;6.70;99.90;;;;;;5134970;27;19998;-43
2023/04/13 03:11:01;;;;;;;;;;;6.70;99.90;;;;;;5134926;27;19919;-42
2023/04/13 03:13:26;;;;;;;;;;;6.70;99.90;;;;;;5146477;27;20003;-43
2023/04/13 03:15:52;;;;;;;;;;;6.70;99.90;;;;;;5155574;27;20391;-42
2023/04/13 03:18:17;;;;;;;;;;;6.70;99.90;;;;;;5155529;27;19913;-42
2023/04/13 03:20:43;;;;;;;;;;;6.70;99.90;;;;;;5154610;27;19912;-43
2023/04/13 03:23:09;;;;;;;;;;;6.70;99.90;;;;;;5146885;27;19911;-42
2023/04/13 03:25:35;;;;;;;;;;;6.70;99.90;;;;;;5145408;27;19914;-44
2023/04/13 03:28:00;;;;;;;;;;;6.70;99.90;;;;;;5140499;27;19911;-44
2023/04/13 03:30:25;;;;;;;;;;;6.70;99.90;;;;;;5155230;27;19999;-42
2023/04/13 03:32:51;;;;;;;;;;;6.70;99.90;;;;;;5145422;27;19907;-41
2023/04/13 03:35:16;;;;;;;;;;;6.70;99.90;;;;;;5134534;27;20414;-42
2023/04/13 03:37:43;;;;;;;;;;;6.70;99.90;;;;;;5134485;27;19915;-41
2023/04/13 03:40:09;;;;;;;;;;;6.70;99.90;;;;;;5133443;27;20010;-42
2023/04/13 03:42:35;;;;;;;;;;;6.70;99.90;;;;;;5137902;27;19954;-43
2023/04/13 03:45:01;;;;;;;;;;;6.60;99.90;;;;;;5134534;27;20281;-41
2023/04/13 03:47:26;;;;;;;;;;;6.70;99.90;;;;;;5133486;27;19915;-42
2023/04/13 03:49:51;;;;;;;;;;;6.70;99.90;;;;;;5134260;27;19907;-42
2023/04/13 03:52:17;;;;;;;;;;;6.70;99.90;;;;;;5134101;27;20411;-42
2023/04/13 03:54:42;;;;;;;;;;;6.70;99.90;;;;;;5133302;27;19914;-42
2023/04/13 03:57:08;;;;;;;;;;;6.70;99.90;;;;;;5134184;27;19914;-44
2023/04/13 03:59:33;;;;;;;;;;;6.70;99.90;;;;;;5134018;27;19919;-42
2023/04/13 04:02:01;;;;;;;;;;;6.70;99.90;;;;;;5133288;27;19914;-43
2023/04/13 04:04:27;;;;;;;;;;;6.70;99.90;;;;;;5133822;27;20449;-42
2023/04/13 04:06:52;;;;;;;;;;;6.70;99.90;;;;;;5133962;27;20006;-42
2023/04/13 04:09:18;;;;;;;;;;;6.70;99.90;;;;;;5133097;27;19908;-42
2023/04/13 04:11:43;;;;;;;;;;;6.70;99.90;;;;;;5133961;27;19911;-41
2023/04/13 04:14:09;;;;;;;;;;;6.70;99.90;;;;;;5133804;27;20007;-41
2023/04/13 04:16:34;;;;;;;;;;;6.70;99.90;;;;;;5133198;27;20366;-41
2023/04/13 04:19:00;;;;;;;;;;;6.70;99.90;;;;;;5133695;27;20002;-41
2023/04/13 04:21:32;;;;;;;;;;;6.70;99.90;;;;;;5137088;27;19911;-41
2023/04/13 04:23:59;;;;;;;;;;;6.70;99.90;;;;;;5153659;27;19907;-41
2023/04/13 04:26:25;;;;;;;;;;;6.70;99.90;;;;;;5154556;27;19908;-41
2023/04/13 04:28:50;;;;;;;;;;;6.70;99.90;;;;;;5154575;27;19960;-43
2023/04/13 04:31:16;;;;;;;;;;;6.70;99.90;;;;;;5153691;27;19965;-41
2023/04/13 04:33:43;;;;;;;;;;;6.70;99.90;;;;;;5154372;27;19966;-43
2023/04/13 04:36:09;;;;;;;;;;;6.70;99.90;;;;;;5153573;27;19910;-42
2023/04/13 04:38:34;;;;;;;;;;;6.70;99.90;;;;;;5150891;27;19923;-40
2023/04/13 04:41:00;;;;;;;;;;;6.70;99.90;;;;;;5154736;27;19914;-41
2023/04/13 04:43:28;;;;;;;;;;;6.70;99.90;;;;;;5156621;27;19918;-42
2023/04/13 04:45:56;;;;;;;;;;;6.60;99.90;;;;;;5158495;27;19911;-41
2023/04/13 04:48:23;;;;;;;;;;;6.70;99.90;;;;;;5158584;27;19960;-42
2023/04/13 04:50:51;;;;;;;;;;;6.70;99.90;;;;;;5157629;27;20002;-42
2023/04/13 04:53:16;;;;;;;;;;;6.70;99.90;;;;;;5158381;27;19914;-42
2023/04/13 04:55:42;;;;;;;;;;;6.80;99.90;;;;;;5158336;27;19908;-41
2023/04/13 04:58:07;;;;;;;;;;;6.70;99.90;;;;;;5157427;27;19911;-42
2023/04/13 05:00:34;;;;;;;;;;;6.80;99.90;;;;;;5158092;27;19926;-42
2023/04/13 05:03:00;;;;;;;;;;;6.80;99.90;;;;;;5157832;27;19930;-41
2023/04/13 05:05:27;;;;;;;;;;;6.80;99.90;;;;;;5157365;27;19914;-40
2023/04/13 05:07:53;;;;;;;;;;;6.80;99.90;;;;;;5158123;27;19950;-42
2023/04/13 05:10:18;;;;;;;;;;;6.80;99.90;;;;;;5158014;27;19935;-43
2023/04/13 05:12:44;;;;;;;;;;;6.80;99.90;;;;;;5156852;27;19922;-42
2023/04/13 05:15:09;;;;;;;;;;;6.70;99.90;;;;;;5157575;27;19922;-41
2023/04/13 05:17:35;;;;;;;;;;;6.70;99.90;;;;;;5157982;27;19907;-42
2023/04/13 05:20:02;;;;;;;;;;;6.60;99.90;;;;;;5156970;27;19978;-43
2023/04/13 05:22:27;;;;;;;;;;;6.60;99.90;;;;;;5157865;27;19944;-42
2023/04/13 05:24:53;;;;;;;;;;;6.50;99.90;;;;;;5157743;27;19908;-42
2023/04/13 05:27:18;;;;;;;;;;;6.50;99.90;;;;;;5157000;27;19914;-42
2023/04/13 05:29:44;;;;;;;;;;;6.40;99.90;;;;;;5144514;27;20356;-41
2023/04/13 05:32:09;;;;;;;;;;;6.40;99.90;;;;;;5153835;27;19915;-41
2023/04/13 05:34:37;;;;;;;;;;;6.40;99.90;;;;;;5152298;27;20394;-43
2023/04/13 05:37:02;;;;;;;;;;;6.40;99.90;;;;;;5151755;27;19917;-41
2023/04/13 05:39:28;;;;;;;;;;;6.40;99.90;;;;;;5150899;27;20006;-42
2023/04/13 05:41:53;;;;;;;;;;;6.40;99.90;;;;;;5148331;27;20022;-41
2023/04/13 05:44:19;;;;;;;;;;;6.40;99.90;;;;;;5153621;27;19907;-42
2023/04/13 05:46:45;;;;;;;;;;;6.50;99.90;;;;;;5152679;27;19907;-42
2023/04/13 05:49:11;;;;;;;;;;;6.60;99.90;;;;;;5151285;27;19982;-42
2023/04/13 05:51:37;;;;;;;;;;;6.70;99.90;;;;;;5154689;27;20315;-42
2023/04/13 05:54:02;;;;;;;;;;;6.70;99.90;;;;;;5148246;27;19917;-42
2023/04/13 05:56:30;;;;;;;;;;;6.70;99.90;;;;;;5150037;27;20352;-42
2023/04/13 05:58:56;;;;;;;;;;;6.60;99.90;;;;;;5136316;27;19912;-43
2023/04/13 06:01:23;;;;;;;;;;;6.60;99.90;;;;;;5135676;27;19914;-41
2023/04/13 06:03:48;;;;;;;;;;;6.60;99.90;;;;;;5148550;27;19969;-42
2023/04/13 06:06:16;;;;;;;;;;;6.70;99.90;;;;;;5157071;27;19950;-41
2023/04/13 06:08:42;;;;;;;;;;;6.80;99.90;;;;;;5156497;27;19986;-43
2023/04/13 06:11:08;;;;;;;;;;;6.80;99.90;;;;;;5156937;27;20344;-41
2023/04/13 06:13:33;;;;;;;;;;;6.90;99.90;;;;;;5156880;27;20384;-41
2023/04/13 06:15:59;;;;;;;;;;;7.00;99.90;;;;;;5155987;27;19907;-41
2023/04/13 06:18:27;;;;;;;;;;;7.10;99.90;;;;;;5156619;27;19911;-40
2023/04/13 06:20:53;;;;;;;;;;;7.20;99.90;;;;;;5150192;27;19968;-42
2023/04/13 06:23:19;;;;;;;;;;;7.20;99.90;;;;;;5155749;27;19911;-41
2023/04/13 06:25:44;;;;;;;;;;;7.30;99.90;;;;;;5156600;27;19918;-41
2023/04/13 06:28:13;;;;;;;;;;;7.30;99.90;;;;;;5156569;27;19911;-42
2023/04/13 06:30:39;;;;;;;;;;;7.30;99.90;;;;;;5138963;27;20005;-43
2023/04/13 06:33:05;;;;;;;;;;;7.30;99.90;;;;;;5139284;27;20404;-42
2023/04/13 06:35:32;;;;;;;;;;;7.30;99.90;;;;;;5153219;27;19911;-41
2023/04/13 06:38:01;;;;;;;;;;;7.30;99.90;;;;;;5156213;27;19942;-42
2023/04/13 06:40:27;;;;;;;;;;;7.40;99.90;;;;;;5156160;27;20366;-44
2023/04/13 06:42:53;;;;;;;;;;;7.30;99.90;;;;;;5155519;27;20320;-41
2023/04/13 06:45:19;;;;;;;;;;;7.40;99.90;;;;;;5151055;27;19954;-42
2023/04/13 06:47:45;;;;;;;;;;;7.40;99.90;;;;;;5156169;27;19911;-40
2023/04/13 06:50:14;;;;;;;;;;;7.50;99.90;;;;;;5149226;27;19912;-42
2023/04/13 06:52:44;;;;;;;;;;;7.60;99.90;;;;;;5152341;27;20010;-41
2023/04/13 06:55:09;;;;;;;;;;;7.70;99.90;;;;;;5136733;27;20290;-41
2023/04/13 06:57:34;;;;;;;;;;;7.80;99.90;;;;;;5155202;27;19907;-42
2023/04/13 07:00:00;;;;;;;;;;;7.80;99.90;;;;;;5155810;27;19919;-41
2023/04/13 07:02:25;;;;;;;;;;;7.90;99.90;;;;;;5155503;27;19912;-42
2023/04/13 07:04:51;;;;;;;;;;;7.90;99.90;;;;;;5154574;27;19940;-43
2023/04/13 07:07:17;;;;;;;;;;;8.00;99.90;;;;;;5155781;27;19914;-42
2023/04/13 07:09:42;;;;;;;;;;;8.10;99.90;;;;;;5155598;27;19951;-43
2023/04/13 07:12:08;;;;;;;;;;;8.10;99.90;;;;;;5155160;27;20258;-42
2023/04/13 07:14:36;;;;;;;;;;;8.10;99.90;;;;;;5155510;27;19907;-43
2023/04/13 07:17:02;;;;;;;;;;;8.10;99.90;;;;;;5155489;27;19915;-41
2023/04/13 07:19:32;;;;;;;;;;;8.10;99.90;;;;;;5154713;27;19939;-41
2023/04/13 07:21:58;;;;;;;;;;;8.10;99.90;;;;;;5155432;27;19907;-43
2023/04/13 07:24:26;;;;;;;;;;;8.10;99.90;;;;;;5155554;27;19959;-42
2023/04/13 07:26:52;;;;;;;;;;;8.20;99.90;;;;;;5154562;27;19907;-43
2023/04/13 07:29:17;;;;;;;;;;;8.20;99.90;;;;;;5144671;27;19911;-42
2023/04/13 07:31:43;;;;;;;;;;;8.20;99.90;;;;;;5150980;27;19963;-42
2023/04/13 07:34:08;;;;;;;;;;;8.30;99.90;;;;;;5141868;27;19911;-43
2023/04/13 07:36:34;;;;;;;;;;;8.30;99.90;;;;;;5141236;27;20385;-43
2023/04/13 07:39:00;;;;;;;;;;;8.40;99.90;;;;;;5154015;27;19958;-42
2023/04/13 07:41:25;;;;;;;;;;;8.50;99.90;;;;;;5149194;27;20277;-41
2023/04/13 07:43:51;;;;;;;;;;;8.60;99.90;;;;;;5155004;27;19907;-41
2023/04/13 07:46:16;;;;;;;;;;;8.70;99.90;;;;;;5139023;27;20042;-43
2023/04/13 07:48:42;;;;;;;;;;;8.80;99.90;;;;;;5144884;27;20034;-43
2023/04/13 07:51:25;;;;;;;;;;;9.00;99.90;;;;;;5147265;27;20373;-44
2023/04/13 07:53:51;;;;;;;;;;;9.20;99.90;;;;;;5151705;27;19911;-42
2023/04/13 07:56:17;;;;;;;;;;;9.20;99.90;;;;;;5143969;27;19915;-44
2023/04/13 07:58:43;;;;;;;;;;;9.10;99.90;;;;;;5142705;27;19919;-42
2023/04/13 08:01:08;;;;;;;;;;;9.10;99.90;;;;;;5135782;27;19911;-43
2023/04/13 08:03:34;;;;;;;;;;;9.00;99.90;;;;;;5148285;27;19924;-43
2023/04/13 08:06:00;;;;;;;;;;;8.90;99.90;;;;;;5149720;27;20173;-42
2023/04/13 08:08:26;;;;;;;;;;;8.80;99.90;;;;;;5142374;27;20337;-44
2023/04/13 08:10:52;;;;;;;;;;;8.70;99.90;;;;;;5153942;27;20061;-42
2023/04/13 08:13:17;;;;;;;;;;;8.70;99.90;;;;;;5138942;27;19934;-44
2023/04/13 08:15:43;;;;;;;;;;;8.70;99.90;;;;;;5149122;27;19959;-43
2023/04/13 08:18:09;;;;;;;;;;;8.80;99.90;;;;;;5151216;27;19911;-43
2023/04/13 08:20:36;;;;;;;;;;;8.90;99.90;;;;;;5141453;27;20404;-43
2023/04/13 08:23:02;;;;;;;;;;;8.90;99.90;;;;;;5133368;27;19915;-42
2023/04/13 08:25:28;;;;;;;;;;;9.00;99.90;;;;;;5134814;27;19994;-44
2023/04/13 08:27:53;;;;;;;;;;;9.00;99.90;;;;;;5152589;27;19990;-42
2023/04/13 08:30:19;;;;;;;;;;;8.90;99.90;;;;;;5132786;27;19911;-44
2023/04/13 08:32:45;;;;;;;;;;;8.90;99.90;;;;;;5133708;28;19911;-42
2023/04/13 08:35:11;;;;;;;;;;;8.90;99.90;;;;;;5132677;28;19918;-42
2023/04/13 08:37:38;;;;;;;;;;;8.90;99.90;;;;;;5133618;28;19915;-45
2023/04/13 08:40:06;;;;;;;;;;;9.00;99.90;;;;;;5133293;28;19922;-43
2023/04/13 08:42:32;;;;;;;;;;;9.20;99.90;;;;;;5150304;27;19907;-41
2023/04/13 08:44:58;;;;;;;;;;;9.50;99.90;;;;;;5154091;27;19918;-43
2023/04/13 08:47:25;;;;;;;;;;;9.70;99.90;;;;;;5154110;27;19907;-42
2023/04/13 08:49:51;;;;;;;;;;;9.90;99.90;;;;;;5154265;27;19908;-43
2023/04/13 08:52:16;;;;;;;;;;;9.80;99.90;;;;;;5147651;27;19915;-42
2023/04/13 08:54:42;;;;;;;;;;;9.50;99.90;;;;;;5130610;28;19919;-42
2023/04/13 08:57:09;;;;;;;;;;;9.20;99.90;;;;;;5133840;28;19972;-43
2023/04/13 08:59:37;;;;;;;;;;;9.00;99.90;;;;;;5133930;28;20393;-41
2023/04/13 09:02:05;;;;;;;;;;;8.80;99.90;;;;;;5134091;28;19918;-41
2023/04/13 09:04:34;;;;;;;;;;;8.70;99.90;;;;;;5133248;28;19920;-42
2023/04/13 09:06:59;;;;;;;;;;;8.50;99.90;;;;;;5133613;28;20354;-41
2023/04/13 09:09:26;;;;;;;;;;;8.40;99.90;;;;;;5133752;28;19908;-44
2023/04/13 09:11:51;;;;;;;;;;;8.30;99.90;;;;;;5136565;27;19911;-42
2023/04/13 09:14:19;;;;;;;;;;;8.30;99.90;;;;;;5144881;27;19918;-41
2023/04/13 09:16:46;;;;;;;;;;;8.30;99.90;;;;;;5143894;27;20408;-41
2023/04/13 09:19:12;;;;;;;;;;;8.30;99.90;;;;;;5149570;27;19927;-41
2023/04/13 09:21:39;;;;;;;;;;;8.30;99.90;;;;;;5129582;27;20019;-40
2023/04/13 09:24:05;;;;;;;;;;;8.30;99.90;;;;;;5140159;27;20417;-41
2023/04/13 09:26:44;;;;;;;;;;;8.40;99.90;;;;;;5136806;27;19999;-41
2023/04/13 09:29:11;;;;;;;;;;;8.50;99.90;;;;;;5142653;27;19919;-40
2023/04/13 09:31:38;;;;;;;;;;;8.60;99.90;;;;;;5148998;27;19922;-44
2023/04/13 09:34:04;;;;;;;;;;;8.50;99.90;;;;;;5143484;27;20002;-41
2023/04/13 09:36:31;;;;;;;;;;;8.60;99.90;;;;;;5145246;27;20334;-43
2023/04/13 09:38:57;;;;;;;;;;;8.60;99.90;;;;;;5150281;27;20281;-40
2023/04/13 09:41:29;;;;;;;;;;;8.60;99.90;;;;;;5141607;27;19918;-41
2023/04/13 09:43:55;;;;;;;;;;;8.60;99.90;;;;;;5137406;27;19915;-42
2023/04/13 09:46:20;;;;;;;;;;;8.70;99.90;;;;;;5136057;27;19964;-42
2023/04/13 09:48:56;;;;;;;;;;;8.90;99.90;;;;;;5136254;27;19911;-40
2023/04/13 09:51:21;;;;;;;;;;;8.90;99.90;;;;;;5136704;27;20311;-41
2023/04/13 09:53:48;;;;;;;;;;;9.00;99.90;;;;;;5134414;27;19915;-41
2023/04/13 09:56:15;;;;;;;;;;;9.10;99.90;;;;;;5135343;27;19931;-41
2023/04/13 09:58:42;;;;;;;;;;;9.00;99.90;;;;;;5137147;27;19971;-40
2023/04/13 10:01:08;;;;;;;;;;;9.00;99.90;;;;;;5144064;27;20311;-42
2023/04/13 10:03:35;;;;;;;;;;;9.00;99.90;;;;;;5146410;27;20698;-40
2023/04/13 10:06:03;;;;;;;;;;;9.20;99.90;;;;;;5140253;27;19918;-42
2023/04/13 10:08:29;;;;;;;;;;;9.40;99.90;;;;;;5153483;27;19961;-40
2023/04/13 10:10:54;;;;;;;;;;;9.70;99.90;;;;;;5147327;27;19948;-40
2023/04/13 10:13:26;;;;;;;;;;;9.90;99.90;;;;;;5136215;27;20396;-41
2023/04/13 10:15:57;;;;;;;;;;;10.10;99.90;;;;;;5151800;27;19911;-41
2023/04/13 10:18:56;;;;;;;;;;;10.30;99.90;;;;;;5156973;27;19911;-42
2023/04/13 10:21:22;;;;;;;;;;;10.40;99.90;;;;;;5131252;27;19920;-41
2023/04/13 10:23:48;;;;;;;;;;;10.40;99.90;;;;;;5142845;27;20010;-41
2023/04/13 10:26:13;;;;;;;;;;;10.20;99.90;;;;;;5149608;27;20001;-42
2023/04/13 10:28:42;;;;;;;;;;;10.20;99.90;;;;;;5154141;27;19908;-42
2023/04/13 10:31:09;;;;;;;;;;;10.30;99.90;;;;;;5139753;27;19994;-40
2023/04/13 10:33:45;;;;;;;;;;;10.30;99.90;;;;;;5143142;27;19911;-40
2023/04/13 10:36:11;;;;;;;;;;;10.40;99.90;;;;;;5141000;27;19912;-40
2023/04/13 10:38:41;;;;;;;;;;;10.40;99.90;;;;;;5142759;27;19912;-40
2023/04/13 10:41:07;;;;;;;;;;;10.40;99.90;;;;;;5145775;27;19911;-40
2023/04/13 10:43:33;;;;;;;;;;;10.30;99.90;;;;;;5125162;27;19914;-42
2023/04/13 10:46:09;;;;;;;;;;;10.40;99.90;;;;;;5156985;27;19954;-41
2023/04/13 10:48:35;;;;;;;;;;;10.70;99.90;;;;;;5156423;27;19918;-40
2023/04/13 10:51:00;;;;;;;;;;;11.10;99.90;;;;;;5147663;27;19911;-41
2023/04/13 10:53:29;;;;;;;;;;;11.40;99.90;;;;;;5135912;27;19930;-41
2023/04/13 10:55:55;;;;;;;;;;;11.60;99.90;;;;;;5134953;27;19927;-42
2023/04/13 10:58:21;;;;;;;;;;;11.70;99.90;;;;;;5147463;27;19911;-42
2023/04/13 11:00:48;;;;;;;;;;;11.60;99.90;;;;;;5146395;27;19919;-41
2023/04/13 11:03:14;;;;;;;;;;;11.30;99.90;;;;;;5153026;27;19919;-40
2023/04/13 11:05:40;;;;;;;;;;;11.00;99.90;;;;;;5135868;27;19918;-41
2023/04/13 11:08:06;;;;;;;;;;;10.70;99.90;;;;;;5138153;27;19918;-41
2023/04/13 11:10:31;;;;;;;;;;;10.60;99.90;;;;;;5143977;27;19911;-42
2023/04/13 11:12:57;;;;;;;;;;;10.50;99.90;;;;;;5146024;27;20341;-41
2023/04/13 11:15:29;;;;;;;;;;;10.50;99.90;;;;;;5142625;27;19998;-43
2023/04/13 11:30:06;;;;;;;;;;;10.50;99.90;;;;;;5149234;27;20268;-42
2023/04/13 11:32:35;;;;;;;;;;;10.80;99.90;;;;;;5150658;27;19911;-40
2023/04/13 11:35:08;;;;;;;;;;;10.80;99.90;;;;;;5151481;27;19930;-41
2023/04/13 11:37:35;;;;;;;;;;;10.80;99.90;;;;;;5151618;27;19916;-43
2023/04/13 11:40:13;;;;;;;;;;;10.80;99.90;;;;;;5150241;27;20366;-42
2023/04/13 11:42:46;;;;;;;;;;;10.70;99.90;;;;;;5130980;27;19912;-41
2023/04/13 11:45:13;;;;;;;;;;;10.70;99.90;;;;;;5138353;27;19908;-42
2023/04/13 11:47:39;;;;;;;;;;;10.70;99.90;;;;;;5151383;27;19914;-41
2023/04/13 11:50:04;;;;;;;;;;;10.60;99.90;;;;;;5150136;27;19908;-43
2023/04/13 11:52:30;;;;;;;;;;;10.50;99.90;;;;;;5148859;27;19911;-42
2023/04/13 11:54:56;;;;;;;;;;;10.40;99.90;;;;;;5150381;27;19911;-41
2023/04/13 11:57:22;;;;;;;;;;;10.30;99.90;;;;;;5150475;27;19917;-42
2023/04/13 11:59:50;;;;;;;;;;;10.30;99.90;;;;;;5149722;27;20339;-42
2023/04/13 12:02:23;;;;;;;;;;;10.30;99.90;;;;;;5145841;27;19915;-43
2023/04/13 12:04:48;;;;;;;;;;;10.30;99.90;;;;;;5145019;27;19914;-42
2023/04/13 12:07:14;;;;;;;;;;;10.40;99.90;;;;;;5148360;27;19916;-43
2023/04/13 12:09:46;;;;;;;;;;;10.40;99.90;;;;;;5140971;27;19943;-41
2023/04/13 12:12:16;;;;;;;;;;;10.50;99.90;;;;;;5142943;27;20355;-42
2023/04/13 12:14:41;;;;;;;;;;;10.60;99.90;;;;;;5149698;27;19918;-41
2023/04/13 12:17:10;;;;;;;;;;;10.70;99.90;;;;;;5149236;27;19907;-42
2023/04/13 12:19:40;;;;;;;;;;;10.80;99.90;;;;;;5150170;27;19927;-43
2023/04/13 12:22:05;;;;;;;;;;;10.80;99.90;;;;;;5135683;27;19916;-44
2023/04/13 12:24:34;;;;;;;;;;;10.90;99.90;;;;;;5144672;27;19912;-43
2023/04/13 12:27:01;;;;;;;;;;;11.10;99.90;;;;;;5149913;27;19915;-44
2023/04/13 12:29:27;;;;;;;;;;;11.20;99.90;;;;;;5144041;27;19967;-42
2023/04/13 12:31:57;;;;;;;;;;;11.40;99.90;;;;;;5128032;27;20012;-42
2023/04/13 12:34:23;;;;;;;;;;;11.50;99.90;;;;;;5125332;27;19933;-43
2023/04/13 12:36:48;;;;;;;;;;;11.80;99.90;;;;;;5125209;27;20476;-41
2023/04/13 12:39:14;;;;;;;;;;;11.70;99.90;;;;;;5116916;27;20429;-42
2023/04/13 12:41:39;;;;;;;;;;;11.60;99.90;;;;;;5131610;27;19907;-45
2023/04/13 12:44:05;;;;;;;;;;;11.40;99.90;;;;;;5123131;27;19954;-43
2023/04/13 12:46:31;;;;;;;;;;;11.20;99.90;;;;;;5128429;27;19919;-43
2023/04/13 12:48:56;;;;;;;;;;;11.00;99.90;;;;;;5133148;27;20238;-42
2023/04/13 12:51:22;;;;;;;;;;;10.90;99.90;;;;;;5136947;27;19911;-43
2023/04/13 12:53:47;;;;;;;;;;;10.90;99.90;;;;;;5125127;27;19916;-42
2023/04/13 12:56:12;;;;;;;;;;;11.00;99.90;;;;;;5118224;27;20372;-43
2023/04/13 12:58:38;;;;;;;;;;;11.20;99.90;;;;;;5127983;27;19962;-41
2023/04/13 13:01:03;;;;;;;;;;;11.30;99.90;;;;;;5118521;27;19957;-43
2023/04/13 13:03:29;;;;;;;;;;;11.30;99.90;;;;;;5121177;27;19916;-45
2023/04/13 13:05:55;;;;;;;;;;;11.30;99.90;;;;;;5123486;27;19908;-42
2023/04/13 13:08:21;;;;;;;;;;;11.50;99.90;;;;;;5121286;27;20414;-41
2023/04/13 13:10:47;;;;;;;;;;;11.70;99.90;;;;;;5133687;27;19926;-42
2023/04/13 13:13:13;;;;;;;;;;;11.90;99.90;;;;;;5124076;27;19911;-44
2023/04/13 13:15:39;;;;;;;;;;;11.90;99.90;;;;;;5136625;27;19908;-42
2023/04/13 13:18:05;;;;;;;;;;;11.90;99.90;;;;;;5118309;27;20269;-43
2023/04/13 13:20:31;;;;;;;;;;;12.10;99.90;;;;;;5134099;27;19994;-44
2023/04/13 13:22:56;;;;;;;;;;;12.60;99.90;;;;;;5125287;27;19991;-44
2023/04/13 13:25:22;;;;;;;;;;;12.90;99.90;;;;;;5117897;27;20056;-42
2023/04/13 13:27:47;;;;;;;;;;;12.80;99.90;;;;;;5129907;27;19933;-41
2023/04/13 13:30:14;;;;;;;;;;;12.60;99.90;;;;;;5127142;27;20356;-43
2023/04/13 13:32:39;;;;;;;;;;;12.30;99.90;;;;;;5122356;27;19919;-42
2023/04/13 13:35:07;;;;;;;;;;;12.50;99.90;;;;;;5119790;27;20044;-42
2023/04/13 13:37:32;;;;;;;;;;;12.50;99.90;;;;;;5122618;27;19912;-44
2023/04/13 13:40:00;;;;;;;;;;;12.70;99.90;;;;;;5124269;27;19950;-42
2023/04/13 13:42:26;;;;;;;;;;;12.60;99.90;;;;;;5133414;27;19934;-44
2023/04/13 13:44:51;;;;;;;;;;;12.60;99.90;;;;;;5114277;28;20261;-42
2023/04/13 13:47:16;;;;;;;;;;;12.50;99.90;;;;;;5115308;28;19912;-45
2023/04/13 13:49:42;;;;;;;;;;;12.70;99.90;;;;;;5133033;27;20368;-42
2023/04/13 13:52:07;;;;;;;;;;;12.50;99.90;;;;;;5126585;27;19947;-44
2023/04/13 13:54:33;;;;;;;;;;;12.40;99.90;;;;;;5115148;28;19916;-42
2023/04/13 13:56:58;;;;;;;;;;;12.10;96.00;;;;;;5115115;28;19911;-42
2023/04/13 13:59:24;;;;;;;;;;;12.00;99.90;;;;;;5114382;28;19923;-41
2023/04/13 14:01:49;;;;;;;;;;;12.10;99.90;;;;;;5115121;28;19912;-43
2023/04/13 14:04:15;;;;;;;;;;;12.30;99.90;;;;;;5114748;28;20014;-42
2023/04/13 14:06:41;;;;;;;;;;;12.30;99.40;;;;;;5115648;27;19912;-41
2023/04/13 14:09:06;;;;;;;;;;;12.20;99.90;;;;;;5124017;27;19912;-42
2023/04/13 14:11:33;;;;;;;;;;;12.20;99.90;;;;;;5131143;27;19918;-42
2023/04/13 14:13:59;;;;;;;;;;;12.10;99.90;;;;;;5130265;27;19968;-42
2023/04/13 14:16:25;;;;;;;;;;;12.20;99.90;;;;;;5116181;27;19911;-41
2023/04/13 14:18:50;;;;;;;;;;;12.20;99.90;;;;;;5135160;27;19923;-42
2023/04/13 14:21:20;;;;;;;;;;;12.00;99.90;;;;;;5134414;27;19915;-42
2023/04/13 14:23:46;;;;;;;;;;;12.00;99.90;;;;;;5135040;27;19918;-42
2023/04/13 14:26:11;;;;;;;;;;;11.80;99.90;;;;;;5126004;27;19912;-42
2023/04/13 14:28:38;;;;;;;;;;;11.80;99.90;;;;;;5122750;27;19949;-44
2023/04/13 14:31:03;;;;;;;;;;;11.80;99.90;;;;;;5129382;27;19912;-42
2023/04/13 14:33:29;;;;;;;;;;;12.10;99.90;;;;;;5126528;27;20023;-42
2023/04/13 14:35:54;;;;;;;;;;;12.30;99.90;;;;;;5118257;27;20311;-43